createdAt,value
2018-02-24T00:00:48.846Z,68.60
2018-02-24T00:01:52.145Z,68.00
2018-02-24T00:02:55.446Z,68.60
2018-02-24T00:03:57.965Z,68.60
2018-02-24T00:05:00.541Z,69.00
2018-02-24T00:06:03.064Z,69.40
2018-02-24T00:07:05.590Z,69.10
2018-02-24T00:08:08.881Z,69.50
2018-02-24T00:09:12.186Z,69.70
2018-02-24T00:10:14.745Z,69.70
2018-02-24T00:11:17.273Z,69.80
2018-02-24T00:12:19.810Z,69.70
2018-02-24T00:13:22.354Z,69.60
2018-02-24T00:14:24.989Z,70.00
2018-02-24T00:15:28.277Z,70.00
2018-02-24T00:16:31.579Z,69.60
2018-02-24T00:17:34.112Z,69.60
2018-02-24T00:18:36.633Z,70.60
2018-02-24T00:19:39.188Z,70.10
2018-02-24T00:20:41.778Z,70.60
2018-02-24T00:21:44.288Z,70.90
2018-02-24T00:22:47.733Z,71.20
2018-02-24T00:23:50.305Z,71.20
2018-02-24T00:24:52.837Z,71.50
2018-02-24T00:25:55.362Z,71.70
2018-02-24T00:26:57.920Z,71.70
2018-02-24T00:28:00.440Z,71.80
2018-02-24T00:29:02.965Z,72.20
2018-02-24T00:30:06.260Z,72.00
2018-02-24T00:31:09.596Z,72.20
2018-02-24T00:32:12.137Z,72.10
2018-02-24T00:33:14.659Z,72.50
2018-02-24T00:34:17.187Z,72.80
2018-02-24T00:35:19.709Z,73.00
2018-02-24T00:36:23.044Z,73.30
2018-02-24T00:37:25.636Z,73.10
2018-02-24T00:38:28.158Z,73.40
2018-02-24T00:39:30.687Z,73.50
2018-02-24T00:40:33.977Z,73.70
2018-02-24T00:41:37.268Z,73.80
2018-02-24T00:42:40.590Z,74.00
2018-02-24T00:43:43.113Z,73.90
2018-02-24T00:44:46.432Z,75.00
2018-02-24T00:45:48.952Z,74.90
2018-02-24T00:46:52.238Z,74.40
2018-02-24T00:47:55.563Z,74.40
2018-02-24T00:48:58.090Z,74.40
2018-02-24T00:50:01.380Z,75.10
2018-02-24T00:51:04.664Z,73.50
2018-02-24T00:52:07.954Z,73.50
2018-02-24T00:53:11.273Z,73.70
2018-02-24T00:54:13.792Z,73.80
2018-02-24T00:55:17.085Z,74.20
2018-02-24T00:56:20.369Z,73.90
2018-02-24T00:57:23.695Z,73.60
2018-02-24T00:58:26.292Z,73.60
2018-02-24T00:59:28.814Z,73.30
2018-02-24T01:00:31.346Z,73.20
2018-02-24T01:01:34.671Z,73.30
2018-02-24T01:02:37.210Z,73.20
2018-02-24T01:03:39.725Z,73.60
2018-02-24T01:04:42.308Z,73.10
2018-02-24T01:05:44.828Z,73.10
2018-02-24T01:06:47.358Z,72.80
2018-02-24T01:07:50.648Z,72.10
2018-02-24T01:08:53.944Z,72.10
2018-02-24T01:09:56.508Z,72.20
2018-02-24T01:10:59.044Z,71.70
2018-02-24T01:12:01.567Z,72.10
2018-02-24T01:13:04.090Z,71.50
2018-02-24T01:14:07.373Z,70.90
2018-02-24T01:15:10.721Z,71.30
2018-02-24T01:16:13.251Z,71.30
2018-02-24T01:17:15.778Z,71.80
2018-02-24T01:18:18.300Z,72.00
2018-02-24T01:19:20.880Z,71.80
2018-02-24T01:20:23.414Z,71.90
2018-02-24T01:21:25.946Z,71.80
2018-02-24T01:22:28.469Z,72.00
2018-02-24T01:23:30.990Z,72.10
2018-02-24T01:24:34.313Z,72.50
2018-02-24T01:25:36.877Z,72.50
2018-02-24T01:26:39.401Z,72.60
2018-02-24T01:27:42.684Z,73.60
2018-02-24T01:28:45.980Z,73.60
2018-02-24T01:29:49.311Z,73.40
2018-02-24T01:30:51.825Z,73.40
2018-02-24T01:31:55.118Z,73.60
2018-02-24T01:32:57.657Z,73.50
2018-02-24T01:34:00.176Z,73.90
2018-02-24T01:35:02.736Z,74.20
2018-02-24T01:36:05.273Z,74.80
2018-02-24T01:37:08.581Z,74.20
2018-02-24T01:38:11.096Z,74.20
2018-02-24T01:39:13.621Z,74.30
2018-02-24T01:40:16.184Z,74.50
2018-02-24T01:41:18.710Z,74.30
2018-02-24T01:42:21.261Z,74.40
2018-02-24T01:43:23.786Z,74.30
2018-02-24T01:44:26.324Z,74.10
2018-02-24T01:45:29.646Z,74.10
2018-02-24T01:46:32.785Z,74.00
2018-02-24T01:47:36.128Z,73.70
2018-02-24T01:48:38.650Z,74.40
2018-02-24T01:49:41.172Z,73.60
2018-02-24T01:50:43.705Z,73.70
2018-02-24T01:51:46.241Z,73.50
2018-02-24T01:52:49.564Z,73.90
2018-02-24T01:53:52.088Z,73.90
2018-02-24T01:54:55.441Z,74.90
2018-02-24T01:55:57.970Z,74.90
2018-02-24T01:57:00.501Z,74.40
2018-02-24T01:58:03.793Z,74.90
2018-02-24T01:59:07.085Z,75.10
2018-02-24T02:00:09.638Z,75.10
2018-02-24T02:01:12.957Z,75.40
2018-02-24T02:02:15.490Z,75.30
2018-02-24T02:03:18.913Z,75.20
2018-02-24T02:04:21.441Z,75.20
2018-02-24T02:05:24.761Z,75.30
2018-02-24T02:06:27.282Z,75.30
2018-02-24T02:07:30.612Z,75.20
2018-02-24T02:08:33.134Z,75.20
2018-02-24T02:09:36.426Z,75.20
2018-02-24T02:10:39.717Z,75.40
2018-02-24T02:11:43.041Z,75.50
2018-02-24T02:12:45.558Z,75.50
2018-02-24T02:13:48.849Z,75.10
2018-02-24T02:14:52.138Z,75.00
2018-02-24T02:15:54.662Z,75.00
2018-02-24T02:16:57.223Z,75.30
2018-02-24T02:17:59.748Z,75.20
2018-02-24T02:19:02.278Z,75.30
2018-02-24T02:20:04.805Z,75.60
2018-02-24T02:21:07.370Z,75.90
2018-02-24T02:22:09.902Z,76.00
2018-02-24T02:23:12.424Z,75.80
2018-02-24T02:24:14.958Z,75.80
2018-02-24T02:25:17.490Z,76.30
2018-02-24T02:26:20.809Z,75.80
2018-02-24T02:27:23.367Z,75.80
2018-02-24T02:28:25.894Z,76.40
2018-02-24T02:29:29.190Z,76.00
2018-02-24T02:30:32.517Z,76.20
2018-02-24T02:31:35.059Z,76.20
2018-02-24T02:32:37.626Z,76.30
2018-02-24T02:33:40.160Z,76.40
2018-02-24T02:34:43.459Z,77.00
2018-02-24T02:35:45.989Z,76.80
2018-02-24T02:36:48.525Z,77.40
2018-02-24T02:37:51.092Z,77.10
2018-02-24T02:38:53.622Z,76.40
2018-02-24T02:39:56.914Z,76.90
2018-02-24T02:40:59.607Z,76.80
2018-02-24T02:42:02.126Z,76.70
2018-02-24T02:43:05.426Z,76.60
2018-02-24T02:44:08.750Z,76.40
2018-02-24T02:45:11.327Z,76.40
2018-02-24T02:46:13.859Z,76.30
2018-02-24T02:47:16.387Z,76.30
2018-02-24T02:48:18.909Z,76.20
2018-02-24T02:49:21.557Z,76.30
2018-02-24T02:50:24.133Z,75.80
2018-02-24T02:51:26.665Z,75.80
2018-02-24T02:52:29.966Z,76.00
2018-02-24T02:53:32.530Z,75.90
2018-02-24T02:54:35.817Z,76.30
2018-02-24T02:55:39.135Z,75.90
2018-02-24T02:56:41.653Z,76.00
2018-02-24T02:57:44.939Z,75.90
2018-02-24T02:58:48.228Z,75.90
2018-02-24T02:59:51.553Z,75.80
2018-02-24T03:00:54.114Z,75.80
2018-02-24T03:01:56.640Z,76.10
2018-02-24T03:02:59.938Z,75.60
2018-02-24T03:04:02.489Z,75.60
2018-02-24T03:05:05.782Z,75.70
2018-02-24T03:06:09.103Z,75.80
2018-02-24T03:07:11.637Z,75.70
2018-02-24T03:08:14.185Z,75.90
2018-02-24T03:09:17.471Z,76.10
2018-02-24T03:10:20.770Z,75.80
2018-02-24T03:11:23.326Z,75.80
2018-02-24T03:12:26.657Z,76.70
2018-02-24T03:13:29.233Z,76.00
2018-02-24T03:14:31.754Z,76.20
2018-02-24T03:15:34.278Z,76.50
2018-02-24T03:16:36.808Z,76.50
2018-02-24T03:17:39.362Z,76.90
2018-02-24T03:18:41.885Z,77.60
2018-02-24T03:19:44.411Z,76.50
2018-02-24T03:20:46.954Z,76.10
2018-02-24T03:21:49.500Z,76.50
2018-02-24T03:22:52.784Z,75.90
2018-02-24T03:23:56.073Z,76.00
2018-02-24T03:24:59.400Z,76.30
2018-02-24T03:26:01.916Z,76.20
2018-02-24T03:27:04.481Z,76.40
2018-02-24T03:28:07.001Z,76.10
2018-02-24T03:29:09.533Z,76.00
2018-02-24T03:30:12.814Z,75.60
2018-02-24T03:31:15.341Z,75.60
2018-02-24T03:32:17.904Z,75.80
2018-02-24T03:33:20.429Z,76.20
2018-02-24T03:34:22.994Z,76.40
2018-02-24T03:35:25.528Z,76.50
2018-02-24T03:36:28.839Z,77.00
2018-02-24T03:37:31.361Z,76.90
2018-02-24T03:38:33.898Z,76.60
2018-02-24T03:39:36.469Z,76.80
2018-02-24T03:40:38.993Z,77.30
2018-02-24T03:41:42.312Z,77.40
2018-02-24T03:42:44.839Z,77.40
2018-02-24T03:43:48.125Z,77.50
2018-02-24T03:44:51.420Z,78.00
2018-02-24T03:46:00.494Z,77.40
2018-02-24T03:47:03.049Z,77.30
2018-02-24T03:48:05.580Z,77.20
2018-02-24T03:49:08.097Z,77.20
2018-02-24T03:50:10.629Z,77.40
2018-02-24T03:51:13.155Z,77.40
2018-02-24T03:52:16.480Z,77.90
2018-02-24T03:53:19.009Z,77.80
2018-02-24T03:54:22.295Z,78.20
2018-02-24T03:55:25.583Z,78.20
2018-02-24T03:56:28.115Z,78.00
2018-02-24T03:57:30.677Z,78.10
2018-02-24T03:58:33.206Z,78.10
2018-02-24T03:59:35.788Z,78.40
2018-02-24T04:00:38.325Z,78.20
2018-02-24T04:01:40.850Z,77.80
2018-02-24T04:02:43.392Z,77.90
2018-02-24T04:03:45.918Z,77.80
2018-02-24T04:04:48.485Z,77.90
2018-02-24T04:05:51.012Z,78.30
2018-02-24T04:06:53.546Z,78.30
2018-02-24T04:07:56.073Z,78.20
2018-02-24T04:08:58.604Z,78.20
2018-02-24T04:10:01.158Z,78.00
2018-02-24T04:11:03.681Z,78.10
2018-02-24T04:12:06.210Z,78.50
2018-02-24T04:13:08.737Z,78.80
2018-02-24T04:14:11.285Z,79.10
2018-02-24T04:15:13.805Z,79.00
2018-02-24T04:16:16.325Z,79.30
2018-02-24T04:17:18.853Z,79.60
2018-02-24T04:18:22.147Z,79.20
2018-02-24T04:19:25.465Z,79.50
2018-02-24T04:20:27.996Z,79.50
2018-02-24T04:21:31.289Z,79.60
2018-02-24T04:22:34.577Z,79.60
2018-02-24T04:23:37.098Z,79.50
2018-02-24T04:24:39.641Z,79.70
2018-02-24T04:25:42.213Z,79.90
2018-02-24T04:26:44.765Z,79.90
2018-02-24T04:27:47.293Z,80.10
2018-02-24T04:28:50.580Z,80.30
2018-02-24T04:29:53.861Z,80.30
2018-02-24T04:30:57.189Z,79.80
2018-02-24T04:31:59.713Z,79.70
2018-02-24T04:33:03.020Z,79.90
2018-02-24T04:34:05.547Z,79.90
2018-02-24T04:35:08.850Z,80.80
2018-02-24T04:36:12.185Z,79.90
2018-02-24T04:37:15.526Z,79.20
2018-02-24T04:38:18.059Z,79.20
2018-02-24T04:39:20.609Z,79.20
2018-02-24T04:40:23.137Z,78.70
2018-02-24T04:41:25.669Z,78.60
2018-02-24T04:42:28.991Z,78.90
2018-02-24T04:43:31.516Z,78.90
2018-02-24T04:44:34.046Z,78.90
2018-02-24T04:45:36.561Z,78.20
2018-02-24T04:46:39.858Z,78.50
2018-02-24T04:47:42.421Z,78.40
2018-02-24T04:48:44.956Z,78.40
2018-02-24T04:49:47.493Z,78.60
2018-02-24T04:50:50.013Z,78.50
2018-02-24T04:51:53.300Z,78.30
2018-02-24T04:52:56.593Z,78.30
2018-02-24T04:53:59.116Z,78.30
2018-02-24T04:55:01.713Z,78.70
2018-02-24T04:56:05.099Z,78.60
2018-02-24T04:57:08.408Z,78.70
2018-02-24T04:58:10.929Z,78.80
2018-02-24T04:59:13.453Z,78.60
2018-02-24T05:00:16.005Z,78.70
2018-02-24T05:01:18.530Z,78.90
2018-02-24T05:02:21.061Z,78.90
2018-02-24T05:03:23.580Z,79.70
2018-02-24T05:04:26.901Z,79.10
2018-02-24T05:05:29.429Z,79.00
2018-02-24T05:06:33.296Z,79.00
2018-02-24T05:07:35.829Z,78.90
2018-02-24T05:08:38.353Z,78.90
2018-02-24T05:09:41.664Z,78.90
2018-02-24T05:10:44.180Z,78.80
2018-02-24T05:11:46.700Z,79.20
2018-02-24T05:12:49.235Z,78.90
2018-02-24T05:13:52.522Z,78.60
2018-02-24T05:14:55.836Z,78.80
2018-02-24T05:15:58.357Z,78.80
2018-02-24T05:17:00.897Z,78.80
2018-02-24T05:18:03.471Z,79.00
2018-02-24T05:19:06.029Z,78.80
2018-02-24T05:20:08.547Z,78.70
2018-02-24T05:21:11.078Z,79.00
2018-02-24T05:22:13.610Z,79.10
2018-02-24T05:23:16.141Z,79.40
2018-02-24T05:24:18.700Z,79.80
2018-02-24T05:25:22.001Z,78.80
2018-02-24T05:26:24.581Z,78.70
2018-02-24T05:27:27.132Z,78.90
2018-02-24T05:28:29.675Z,79.20
2018-02-24T05:29:32.254Z,79.30
2018-02-24T05:30:35.558Z,79.30
2018-02-24T05:31:38.081Z,79.30
2018-02-24T05:32:40.632Z,79.00
2018-02-24T05:33:43.162Z,78.50
2018-02-24T05:34:45.722Z,78.40
2018-02-24T05:35:48.244Z,78.40
2018-02-24T05:36:50.781Z,78.60
2018-02-24T05:37:53.313Z,78.90
2018-02-24T05:38:55.874Z,78.80
2018-02-24T05:39:58.404Z,79.10
2018-02-24T05:41:00.924Z,79.00
2018-02-24T05:42:03.449Z,79.00
2018-02-24T05:43:06.001Z,79.30
2018-02-24T05:44:08.525Z,79.80
2018-02-24T05:45:11.082Z,80.00
2018-02-24T05:46:13.606Z,79.90
2018-02-24T05:47:16.141Z,80.20
2018-02-24T05:48:18.667Z,80.50
2018-02-24T05:49:22.118Z,81.10
2018-02-24T05:50:24.672Z,81.10
2018-02-24T05:51:27.192Z,80.70
2018-02-24T05:52:29.714Z,80.90
2018-02-24T05:53:32.238Z,81.00
2018-02-24T05:54:34.769Z,81.20
2018-02-24T05:55:38.076Z,81.20
2018-02-24T05:56:40.609Z,81.20
2018-02-24T05:57:43.140Z,81.00
2018-02-24T05:58:45.671Z,80.90
2018-02-24T05:59:48.234Z,80.60
2018-02-24T06:00:51.516Z,80.90
2018-02-24T06:01:54.805Z,80.80
2018-02-24T06:02:57.337Z,80.80
2018-02-24T06:03:59.882Z,81.10
2018-02-24T06:05:02.418Z,81.50
2018-02-24T06:06:04.949Z,82.50
2018-02-24T06:07:08.242Z,81.60
2018-02-24T06:08:11.540Z,82.90
2018-02-24T06:09:14.099Z,82.90
2018-02-24T06:10:17.392Z,82.30
2018-02-24T06:11:19.916Z,82.30
2018-02-24T06:12:22.444Z,82.40
2018-02-24T06:13:24.966Z,82.60
2018-02-24T06:14:28.283Z,81.40
2018-02-24T06:15:30.841Z,81.30
2018-02-24T06:16:34.068Z,81.20
2018-02-24T06:17:37.370Z,81.00
2018-02-24T06:18:39.897Z,81.00
2018-02-24T06:19:42.445Z,81.00
2018-02-24T06:20:45.117Z,80.60
2018-02-24T06:21:47.661Z,80.50
2018-02-24T06:22:50.957Z,80.20
2018-02-24T06:23:53.495Z,80.30
2018-02-24T06:24:56.813Z,80.20
2018-02-24T06:25:59.352Z,80.10
2018-02-24T06:27:02.662Z,80.10
2018-02-24T06:28:05.186Z,80.10
2018-02-24T06:29:07.721Z,80.30
2018-02-24T06:30:10.250Z,80.30
2018-02-24T06:31:12.816Z,80.20
2018-02-24T06:32:16.121Z,80.30
2018-02-24T06:33:18.650Z,80.20
2018-02-24T06:34:21.949Z,81.10
2018-02-24T06:35:25.358Z,80.50
2018-02-24T06:36:27.923Z,80.50
2018-02-24T06:37:30.488Z,80.80
2018-02-24T06:38:33.008Z,80.50
2018-02-24T06:39:35.581Z,80.40
2018-02-24T06:40:38.081Z,80.30
2018-02-24T06:41:40.635Z,80.40
2018-02-24T06:42:43.162Z,80.30
2018-02-24T06:43:45.686Z,80.40
2018-02-24T06:44:48.212Z,80.50
2018-02-24T06:45:51.501Z,81.50
2018-02-24T06:46:54.813Z,81.00
2018-02-24T06:47:57.336Z,80.90
2018-02-24T06:48:59.863Z,80.90
2018-02-24T06:50:02.394Z,81.10
2018-02-24T06:51:05.690Z,81.40
2018-02-24T06:52:08.235Z,81.40
2018-02-24T06:53:11.518Z,82.00
2018-02-24T06:54:14.817Z,81.80
2018-02-24T06:55:18.106Z,81.80
2018-02-24T06:56:20.641Z,81.80
2018-02-24T06:57:23.198Z,82.20
2018-02-24T06:58:25.746Z,82.60
2018-02-24T06:59:28.281Z,82.70
2018-02-24T07:00:30.850Z,82.60
2018-02-24T07:01:33.378Z,82.50
2018-02-24T07:02:35.925Z,82.50
2018-02-24T07:03:38.450Z,82.40
2018-02-24T07:04:40.978Z,82.10
2018-02-24T07:05:44.321Z,82.30
2018-02-24T07:06:46.902Z,82.20
2018-02-24T07:07:49.432Z,82.30
2018-02-24T07:08:51.962Z,82.40
2018-02-24T07:09:55.250Z,82.60
2018-02-24T07:10:58.571Z,83.70
2018-02-24T07:12:01.111Z,83.00
2018-02-24T07:13:04.472Z,82.80
2018-02-24T07:14:07.014Z,82.80
2018-02-24T07:15:09.554Z,82.50
2018-02-24T07:16:12.130Z,82.20
2018-02-24T07:17:14.662Z,82.10
2018-02-24T07:18:17.950Z,81.00
2018-02-24T07:19:20.482Z,81.00
2018-02-24T07:20:23.002Z,81.30
2018-02-24T07:21:25.566Z,81.80
2018-02-24T07:22:28.093Z,82.20
2018-02-24T07:23:31.414Z,82.90
2018-02-24T07:24:33.944Z,82.80
2018-02-24T07:25:36.486Z,82.70
2018-02-24T07:26:39.045Z,81.80
2018-02-24T07:27:41.590Z,81.80
2018-02-24T07:28:44.117Z,82.00
2018-02-24T07:29:47.416Z,81.60
2018-02-24T07:30:49.947Z,81.60
2018-02-24T07:31:52.501Z,81.30
2018-02-24T07:32:55.033Z,80.90
2018-02-24T07:33:57.556Z,81.10
2018-02-24T07:35:00.107Z,81.10
2018-02-24T07:36:02.637Z,82.70
2018-02-24T07:37:05.196Z,82.00
2018-02-24T07:38:07.725Z,81.70
2018-02-24T07:39:11.168Z,81.10
2018-02-24T07:40:13.697Z,81.10
2018-02-24T07:41:16.268Z,80.70
2018-02-24T07:42:18.794Z,80.10
2018-02-24T07:43:21.314Z,79.50
2018-02-24T07:44:23.849Z,79.60
2018-02-24T07:45:27.147Z,79.10
2018-02-24T07:46:29.690Z,79.10
2018-02-24T07:47:32.222Z,78.50
2018-02-24T07:48:34.761Z,78.40
2018-02-24T07:49:37.326Z,78.30
2018-02-24T07:50:39.852Z,78.30
2018-02-24T07:51:42.405Z,78.00
2018-02-24T07:52:44.936Z,78.30
2018-02-24T07:53:47.472Z,78.70
2018-02-24T07:54:50.763Z,79.10
2018-02-24T07:55:53.288Z,79.10
2018-02-24T07:56:55.837Z,79.40
2018-02-24T07:57:58.386Z,79.60
2018-02-24T07:59:00.913Z,79.60
2018-02-24T08:00:04.201Z,79.50
2018-02-24T08:01:07.513Z,78.70
2018-02-24T08:02:10.042Z,78.60
2018-02-24T08:03:13.366Z,78.00
2018-02-24T08:04:15.894Z,78.00
2018-02-24T08:05:19.186Z,76.60
2018-02-24T08:06:22.505Z,76.80
2018-02-24T08:07:25.036Z,76.20
2018-02-24T08:08:27.576Z,75.80
2018-02-24T08:09:30.137Z,75.30
2018-02-24T08:10:32.656Z,74.70
2018-02-24T08:11:35.197Z,73.80
2018-02-24T08:12:38.506Z,72.90
2018-02-24T08:13:41.036Z,72.90
2018-02-24T08:14:44.330Z,72.00
2018-02-24T08:15:47.635Z,72.70
2018-02-24T08:16:51.332Z,73.00
2018-02-24T08:17:53.854Z,73.00
2018-02-24T08:18:56.376Z,73.00
2018-02-24T08:19:58.897Z,72.60
2018-02-24T08:21:02.205Z,71.80
2018-02-24T08:22:04.814Z,71.70
2018-02-24T08:23:07.400Z,71.00
2018-02-24T08:24:09.939Z,71.10
2018-02-24T08:25:12.470Z,72.00
2018-02-24T08:26:14.988Z,70.60
2018-02-24T08:27:17.514Z,71.50
2018-02-24T08:28:20.066Z,71.60
2018-02-24T08:29:22.594Z,71.40
2018-02-24T08:30:25.124Z,71.60
2018-02-24T08:31:27.694Z,71.90
2018-02-24T08:32:30.223Z,72.30
2018-02-24T08:33:33.546Z,72.00
2018-02-24T08:34:36.074Z,71.90
2018-02-24T08:35:39.392Z,70.60
2018-02-24T08:36:41.914Z,70.50
2018-02-24T08:37:45.209Z,68.40
2018-02-24T08:38:47.742Z,68.20
2018-02-24T08:39:50.303Z,68.90
2018-02-24T08:40:52.906Z,69.90
2018-02-24T08:41:56.198Z,69.40
2018-02-24T08:42:58.729Z,69.50
2018-02-24T08:44:01.261Z,68.90
2018-02-24T08:45:03.810Z,67.70
2018-02-24T08:46:06.365Z,67.10
2018-02-24T08:47:08.926Z,68.30
2018-02-24T08:48:12.213Z,70.30
2018-02-24T08:49:15.505Z,71.10
2018-02-24T08:50:18.035Z,71.10
2018-02-24T08:51:20.566Z,70.90
2018-02-24T08:52:23.116Z,72.00
2018-02-24T08:53:25.641Z,71.80
2018-02-24T08:54:28.936Z,74.00
2018-02-24T08:55:32.389Z,73.80
2018-02-24T08:56:34.922Z,73.80
2018-02-24T08:57:37.474Z,73.80
2018-02-24T08:58:40.005Z,73.70
2018-02-24T08:59:42.584Z,74.30
2018-02-24T09:00:45.885Z,75.30
2018-02-24T09:01:48.411Z,75.30
2018-02-24T09:02:50.959Z,74.50
2018-02-24T09:03:53.495Z,74.40
2018-02-24T09:04:56.045Z,74.60
2018-02-24T09:05:59.337Z,75.00
2018-02-24T09:07:01.857Z,75.00
2018-02-24T09:08:04.381Z,74.90
2018-02-24T09:09:06.904Z,74.20
2018-02-24T09:10:09.459Z,74.30
2018-02-24T09:11:11.982Z,74.60
2018-02-24T09:12:14.510Z,74.60
2018-02-24T09:13:17.825Z,74.20
2018-02-24T09:14:20.354Z,74.20
2018-02-24T09:15:22.881Z,74.00
2018-02-24T09:16:25.430Z,74.10
2018-02-24T09:17:27.953Z,73.60
2018-02-24T09:18:31.262Z,73.90
2018-02-24T09:19:33.809Z,74.00
2018-02-24T09:20:37.112Z,76.40
2018-02-24T09:21:39.657Z,76.50
2018-02-24T09:22:42.953Z,78.60
2018-02-24T09:23:46.238Z,78.90
2018-02-24T09:24:49.551Z,78.40
2018-02-24T09:25:52.074Z,78.40
2018-02-24T09:26:55.353Z,81.50
2018-02-24T09:27:57.901Z,80.80
2018-02-24T09:29:00.432Z,81.10
2018-02-24T09:30:02.953Z,79.70
2018-02-24T09:31:05.475Z,79.50
2018-02-24T09:32:07.997Z,80.40
2018-02-24T09:33:11.334Z,80.80
2018-02-24T09:34:13.852Z,80.80
2018-02-24T09:35:17.216Z,80.60
2018-02-24T09:36:19.755Z,80.70
2018-02-24T09:37:23.041Z,80.70
2018-02-24T09:38:25.557Z,80.70
2018-02-24T09:39:28.105Z,80.70
2018-02-24T09:40:31.389Z,80.70
2018-02-24T09:41:34.733Z,80.60
2018-02-24T09:42:37.277Z,80.60
2018-02-24T09:43:39.788Z,80.30
2018-02-24T09:44:42.324Z,80.30
2018-02-24T09:45:44.832Z,80.40
2018-02-24T09:46:47.346Z,80.30
2018-02-24T09:47:49.864Z,80.20
2018-02-24T09:48:52.416Z,80.00
2018-02-24T09:49:54.926Z,80.70
2018-02-24T09:50:57.444Z,80.00
2018-02-24T09:51:59.963Z,79.70
2018-02-24T09:53:02.484Z,79.20
2018-02-24T09:54:05.018Z,78.90
2018-02-24T09:55:07.532Z,78.60
2018-02-24T09:56:10.813Z,77.90
2018-02-24T09:57:14.100Z,77.70
2018-02-24T09:58:17.381Z,77.60
2018-02-24T09:59:20.675Z,78.10
2018-02-24T10:00:23.949Z,78.00
2018-02-24T10:01:27.232Z,78.40
2018-02-24T10:02:30.515Z,78.00
2018-02-24T10:03:33.801Z,77.90
2018-02-24T10:04:37.119Z,78.00
2018-02-24T10:05:39.635Z,78.00
2018-02-24T10:06:42.180Z,78.20
2018-02-24T10:07:44.692Z,78.40
2018-02-24T10:08:47.974Z,78.30
2018-02-24T10:09:51.262Z,78.50
2018-02-24T10:10:54.541Z,78.60
2018-02-24T10:11:57.847Z,78.60
2018-02-24T10:13:00.362Z,78.60
2018-02-24T10:14:02.910Z,79.30
2018-02-24T10:15:05.442Z,78.70
2018-02-24T10:16:07.958Z,78.80
2018-02-24T10:17:10.474Z,79.00
2018-02-24T10:18:12.990Z,79.20
2018-02-24T10:19:15.554Z,79.30
2018-02-24T10:20:18.071Z,79.70
2018-02-24T10:21:20.595Z,79.90
2018-02-24T10:22:23.114Z,80.10
2018-02-24T10:23:25.635Z,80.30
2018-02-24T10:24:28.181Z,80.60
2018-02-24T10:25:30.710Z,80.90
2018-02-24T10:26:33.228Z,80.80
2018-02-24T10:27:35.753Z,81.00
2018-02-24T10:28:38.314Z,80.90
2018-02-24T10:29:40.838Z,81.00
2018-02-24T10:30:44.145Z,81.10
2018-02-24T10:31:46.665Z,81.00
2018-02-24T10:32:49.187Z,81.10
2018-02-24T10:33:51.702Z,80.60
2018-02-24T10:34:54.214Z,80.90
2018-02-24T10:35:56.757Z,81.00
2018-02-24T10:37:00.041Z,80.70
2018-02-24T10:38:03.338Z,81.00
2018-02-24T10:39:05.860Z,80.90
2018-02-24T10:40:08.384Z,81.10
2018-02-24T10:41:10.930Z,81.20
2018-02-24T10:42:13.458Z,81.20
2018-02-24T10:43:15.982Z,81.20
2018-02-24T10:44:18.504Z,80.90
2018-02-24T10:45:21.238Z,81.40
2018-02-24T10:46:23.769Z,81.20
2018-02-24T10:47:26.297Z,80.70
2018-02-24T10:48:28.853Z,80.90
2018-02-24T10:49:31.368Z,80.90
2018-02-24T10:50:33.921Z,81.10
2018-02-24T10:51:37.206Z,81.00
2018-02-24T10:52:40.489Z,80.80
2018-02-24T10:53:43.784Z,80.40
2018-02-24T10:54:46.350Z,80.40
2018-02-24T10:55:48.879Z,80.50
2018-02-24T10:56:51.401Z,80.20
2018-02-24T10:57:53.966Z,79.80
2018-02-24T10:58:56.489Z,80.00
2018-02-24T10:59:59.009Z,79.10
2018-02-24T11:01:01.533Z,79.50
2018-02-24T11:02:04.822Z,79.30
2018-02-24T11:03:08.169Z,78.80
2018-02-24T11:04:10.687Z,78.80
2018-02-24T11:05:13.209Z,78.30
2018-02-24T11:06:15.730Z,77.90
2018-02-24T11:07:18.249Z,77.80
2018-02-24T11:08:20.797Z,77.60
2018-02-24T11:09:23.348Z,76.50
2018-02-24T11:10:25.873Z,75.90
2018-02-24T11:11:28.389Z,75.90
2018-02-24T11:12:30.897Z,75.20
2018-02-24T11:13:34.201Z,73.40
2018-02-24T11:14:36.718Z,73.40
2018-02-24T11:15:39.249Z,72.90
2018-02-24T11:16:41.765Z,72.30
2018-02-24T11:17:44.304Z,71.10
2018-02-24T11:18:46.852Z,70.60
2018-02-24T11:19:49.378Z,70.10
2018-02-24T11:20:52.698Z,66.80
2018-02-24T11:21:55.221Z,66.70
2018-02-24T11:22:58.546Z,65.30
2018-02-24T11:24:01.079Z,65.30
2018-02-24T11:25:04.384Z,64.10
2018-02-24T11:26:06.929Z,64.10
2018-02-24T11:27:10.227Z,63.50
2018-02-24T11:28:12.741Z,63.50
2018-02-24T11:29:15.256Z,64.30
2018-02-24T11:30:17.775Z,65.80
2018-02-24T11:31:20.371Z,65.60
2018-02-24T11:32:22.863Z,66.60
2018-02-24T11:33:25.373Z,67.70
2018-02-24T11:34:27.890Z,68.10
2018-02-24T11:35:30.449Z,68.60
2018-02-24T11:36:33.316Z,68.50
2018-02-24T11:37:36.600Z,70.60
2018-02-24T11:38:39.890Z,70.30
2018-02-24T11:39:42.398Z,70.40
2018-02-24T11:40:44.941Z,70.50
2018-02-24T11:41:47.463Z,71.20
2018-02-24T11:42:50.009Z,71.80
2018-02-24T11:43:52.523Z,72.20
2018-02-24T11:44:55.065Z,71.30
2018-02-24T11:45:57.608Z,71.50
2018-02-24T11:47:00.132Z,71.20
2018-02-24T11:48:02.649Z,70.20
2018-02-24T11:49:05.173Z,69.20
2018-02-24T11:50:07.741Z,67.80
2018-02-24T11:51:10.269Z,65.60
2018-02-24T11:52:13.551Z,67.70
2018-02-24T11:53:16.838Z,68.80
2018-02-24T11:54:20.129Z,69.00
2018-02-24T11:55:23.415Z,69.90
2018-02-24T11:56:25.953Z,69.80
2018-02-24T11:57:28.474Z,69.40
2018-02-24T11:58:30.980Z,68.30
2018-02-24T11:59:33.505Z,67.80
2018-02-24T12:00:36.022Z,67.20
2018-02-24T12:01:38.561Z,66.90
2018-02-24T12:02:41.078Z,65.80
2018-02-24T12:03:43.593Z,65.70
2018-02-24T12:04:46.104Z,65.20
2018-02-24T12:05:48.626Z,64.70
2018-02-24T12:06:51.165Z,65.00
2018-02-24T12:07:53.685Z,64.00
2018-02-24T12:08:56.975Z,64.30
2018-02-24T12:10:00.256Z,64.70
2018-02-24T12:11:03.631Z,64.70
2018-02-24T12:12:06.161Z,64.70
2018-02-24T12:13:08.673Z,65.50
2018-02-24T12:14:11.952Z,65.40
2018-02-24T12:15:15.238Z,66.30
2018-02-24T12:16:18.554Z,67.10
2018-02-24T12:17:21.069Z,67.00
2018-02-24T12:18:23.585Z,66.80
2018-02-24T12:19:26.153Z,65.20
2018-02-24T12:20:28.665Z,63.80
2018-02-24T12:21:31.224Z,63.70
2018-02-24T12:22:33.741Z,63.20
2018-02-24T12:23:36.256Z,64.00
2018-02-24T12:24:38.769Z,62.00
2018-02-24T12:25:41.278Z,60.30
2018-02-24T12:26:43.830Z,60.10
2018-02-24T12:28:55.970Z,58.60
2018-02-24T12:29:58.481Z,58.30
2018-02-24T12:31:01.037Z,58.30
2018-02-24T12:32:03.557Z,56.30
2018-02-24T12:33:06.070Z,55.40
2018-02-24T12:34:08.587Z,55.80
2018-02-24T12:35:11.111Z,55.10
2018-02-24T12:36:13.660Z,54.60
2018-02-24T12:37:16.168Z,53.00
2018-02-24T12:38:18.742Z,52.50
2018-02-24T12:39:21.256Z,52.30
2018-02-24T12:40:23.773Z,52.60
2018-02-24T12:41:26.365Z,51.90
2018-02-24T12:42:29.653Z,55.80
2018-02-24T12:43:32.932Z,56.30
2018-02-24T12:44:35.485Z,56.10
2018-02-24T12:45:38.005Z,53.50
2018-02-24T12:46:40.564Z,53.70
2018-02-24T12:47:43.817Z,53.60
2018-02-24T12:48:47.102Z,52.60
2018-02-24T12:49:50.413Z,53.00
2018-02-24T12:50:52.974Z,53.00
2018-02-24T12:51:56.242Z,53.00
2018-02-24T12:52:59.528Z,50.10
2018-02-24T12:54:02.826Z,50.30
2018-02-24T12:55:05.434Z,50.30
2018-02-24T12:56:07.954Z,50.90
2018-02-24T12:57:10.554Z,51.80
2018-02-24T12:58:13.109Z,51.10
2018-02-24T12:59:15.622Z,52.50
2018-02-24T13:00:18.138Z,52.40
2018-02-24T13:01:20.652Z,52.50
2018-02-24T13:02:23.195Z,51.10
2018-02-24T13:03:25.730Z,50.60
2018-02-24T13:04:28.266Z,49.60
2018-02-24T13:05:31.586Z,48.80
2018-02-24T13:06:34.656Z,48.80
2018-02-24T13:07:37.182Z,49.20
2018-02-24T13:08:39.696Z,50.60
2018-02-24T13:09:42.206Z,51.20
2018-02-24T13:10:44.764Z,51.30
2018-02-24T13:11:47.277Z,50.00
2018-02-24T13:12:49.793Z,50.30
2018-02-24T13:13:52.319Z,50.50
2018-02-24T13:14:54.837Z,51.10
2018-02-24T13:15:57.389Z,50.00
2018-02-24T13:16:59.901Z,49.10
2018-02-24T13:18:03.182Z,49.40
2018-02-24T13:19:06.472Z,46.90
2018-02-24T13:20:09.780Z,41.10
2018-02-24T13:21:12.349Z,41.00
2018-02-24T13:22:14.903Z,38.50
2018-02-24T13:23:17.417Z,39.60
2018-02-24T13:24:19.962Z,41.60
2018-02-24T13:25:22.511Z,43.60
2018-02-24T13:26:25.017Z,43.20
2018-02-24T13:27:27.528Z,44.30
2018-02-24T13:28:30.082Z,44.10
2018-02-24T13:29:33.366Z,41.90